Hazle Township, Pennsylvania
Current Conditions -  °F | °C
As of 3:15 PM on Thursday 29 Jan 2015 (Local Time) from KHZL Reporting Station
Overcast Overcast  
Wind Chill: 17°   Ceiling: 7000
Heat Index: 27°   Visibility: 10mi
Dew Point:   Wind: 10mph
Humidity: 37%   Direction: 130°SE
Pressure: 29.98"   Gusts: 18mph
Location:  40.9393°N, 75.992°W
Report Text: KHZL 292015Z AUTO 13009G16KT 100V170 10SM OVC070 M03/M16 A2998 RMK AO2
Loading
Personal Weather Stations






























Interactive Weather Map New forecast layout! Learn more

10-Day Weather Forecast

Advertisements
Track Severe Weather on mobile